Time;durP1;ratioP1;P1;durP2;ratioP2;P2;SDS_P1;SDS_P2;PMS_P1;PMS_P2;Temp;Humidity;BMP_temperature;BMP_pressure;BME280_temperature;BME280_humidity;BME280_pressure;Samples;Min_cycle;Max_cycle;Signal;HPM_P1;HPM_P2
2022/01/24 00:01:41;;;;;;;12.57;11.27;;;5.30;99.90;;;;;;5013400;28;20224;-55
2022/01/24 00:04:08;;;;;;;14.77;11.13;;;5.30;99.90;;;;;;5012984;28;20172;-54
2022/01/24 00:06:34;;;;;;;12.83;11.00;;;5.20;99.90;;;;;;5013155;28;20184;-52
2022/01/24 00:09:01;;;;;;;11.53;10.33;;;5.20;99.90;;;;;;5013252;28;20188;-52
2022/01/24 00:11:40;;;;;;;12.90;10.80;;;5.20;99.90;;;;;;5012828;28;20188;-54
2022/01/24 00:28:01;;;;;;;10.63;9.53;;;5.40;99.90;;;;;;4932716;29;20218;-54
2022/01/24 00:30:26;;;;;;;11.87;10.67;;;5.30;99.90;;;;;;4932917;29;20302;-53
2022/01/24 00:32:52;;;;;;;12.20;11.00;;;5.30;99.90;;;;;;4932711;29;20218;-55
2022/01/24 00:35:17;;;;;;;14.77;13.20;;;5.30;99.90;;;;;;4932833;29;20183;-51
2022/01/24 00:37:43;;;;;;;12.13;10.93;;;5.30;99.90;;;;;;4932579;29;20738;-52
2022/01/24 00:40:09;;;;;;;12.20;10.30;;;5.30;99.90;;;;;;4932958;29;20647;-55
2022/01/24 00:55:41;;;;;;;14.77;12.67;;;5.20;99.90;;;;;;4878387;29;20215;-59
2022/01/24 00:58:06;;;;;;;13.87;12.27;;;5.20;99.90;;;;;;4894897;29;20654;-54
2022/01/24 01:00:32;;;;;;;14.60;12.00;;;5.20;99.90;;;;;;4931751;29;20294;-57
2022/01/24 01:02:57;;;;;;;13.63;12.07;;;5.20;99.90;;;;;;4932792;29;20823;-53
2022/01/24 01:08:02;;;;;;;14.37;11.97;;;5.00;99.90;;;;;;4932496;29;20278;-54
2022/01/24 01:18:40;;;;;;;13.20;11.80;;;4.60;99.90;;;;;;4932756;29;20330;-56
2022/01/24 01:23:34;;;;;;;12.30;11.03;;;4.50;99.90;;;;;;4943783;28;20192;-54
2022/01/24 01:26:04;;;;;;;12.20;10.90;;;4.40;99.90;;;;;;5011932;28;20180;-57
2022/01/24 01:28:31;;;;;;;18.00;13.83;;;4.40;99.90;;;;;;5011679;28;20231;-56
2022/01/24 01:31:02;;;;;;;12.77;11.47;;;4.30;99.90;;;;;;5011948;28;20703;-57
2022/01/24 01:33:59;;;;;;;13.80;12.30;;;4.30;99.90;;;;;;5011676;28;20192;-53
2022/01/24 01:36:24;;;;;;;12.17;10.87;;;4.40;99.90;;;;;;5012896;28;20314;-52
2022/01/24 01:53:00;;;;;;;13.13;11.73;;;4.40;99.90;;;;;;5015933;28;20214;-51
2022/01/24 01:57:52;;;;;;;13.30;11.90;;;4.40;99.90;;;;;;5015744;28;20612;-55
2022/01/24 02:00:17;;;;;;;13.53;11.63;;;4.40;99.90;;;;;;5015456;28;20287;-52
2022/01/24 02:02:43;;;;;;;13.70;12.30;;;4.30;99.90;;;;;;5015564;28;20596;-54
2022/01/24 02:05:09;;;;;;;13.97;12.10;;;4.20;99.90;;;;;;5015483;28;20259;-54
2022/01/24 02:07:45;;;;;;;13.37;11.97;;;4.10;99.90;;;;;;5015250;28;20180;-59
2022/01/24 02:10:11;;;;;;;13.10;11.27;;;4.10;99.90;;;;;;5015528;28;20216;-56
2022/01/24 02:12:37;;;;;;;13.10;11.43;;;4.00;99.90;;;;;;5015057;28;20173;-58
2022/01/24 02:15:02;;;;;;;13.97;12.47;;;4.00;99.90;;;;;;5015212;28;20200;-52
2022/01/24 02:20:44;;;;;;;14.30;12.40;;;3.80;99.90;;;;;;5007014;28;20231;-54
2022/01/24 02:25:56;;;;;;;15.57;13.80;;;3.90;99.90;;;;;;5015230;28;20176;-52
2022/01/24 02:28:23;;;;;;;14.23;11.90;;;3.90;99.90;;;;;;5014767;28;20192;-59
2022/01/24 02:33:18;;;;;;;13.53;11.70;;;4.00;99.90;;;;;;5014978;28;20676;-61
2022/01/24 02:35:45;;;;;;;12.63;11.33;;;4.00;99.90;;;;;;5014538;28;20173;-54
2022/01/24 02:38:22;;;;;;;12.23;10.97;;;4.00;99.90;;;;;;5015018;28;20283;-59
2022/01/24 02:46:01;;;;;;;11.50;10.10;;;4.20;99.90;;;;;;5014555;28;20214;-58
2022/01/24 02:49:06;;;;;;;11.27;10.17;;;4.50;99.90;;;;;;5013763;28;20227;-58
2022/01/24 02:51:46;;;;;;;13.33;11.53;;;4.50;99.90;;;;;;5014353;28;20192;-56
2022/01/24 02:54:19;;;;;;;13.53;12.10;;;4.50;99.90;;;;;;5014726;28;20165;-59
2022/01/24 02:56:44;;;;;;;13.23;11.83;;;4.50;99.90;;;;;;5014045;28;20705;-56
2022/01/24 02:59:10;;;;;;;13.70;12.03;;;4.50;99.90;;;;;;5014648;28;20208;-60
2022/01/24 03:01:35;;;;;;;12.13;10.63;;;4.60;99.90;;;;;;5014100;28;20253;-59
2022/01/24 03:04:01;;;;;;;11.77;10.17;;;4.60;99.90;;;;;;5014608;28;20281;-55
2022/01/24 03:06:27;;;;;;;12.03;10.83;;;4.40;99.90;;;;;;5014058;28;20657;-58
2022/01/24 03:08:52;;;;;;;11.47;10.27;;;4.40;99.90;;;;;;5014028;28;20201;-60
2022/01/24 03:11:20;;;;;;;10.80;9.70;;;4.40;99.90;;;;;;5014362;28;20577;-58
2022/01/24 03:13:45;;;;;;;10.43;9.23;;;4.40;99.90;;;;;;5014003;28;20172;-58
2022/01/24 03:16:11;;;;;;;11.33;10.13;;;4.40;99.90;;;;;;5013953;28;20175;-60
2022/01/24 03:18:36;;;;;;;10.93;9.73;;;4.30;99.90;;;;;;5013812;28;20223;-54
2022/01/24 03:21:03;;;;;;;10.90;9.73;;;4.30;99.90;;;;;;5014226;28;20243;-57
2022/01/24 03:23:29;;;;;;;11.07;9.50;;;4.30;99.90;;;;;;5013817;28;20222;-59
2022/01/24 03:25:55;;;;;;;10.50;9.40;;;4.30;99.90;;;;;;5013761;28;20177;-54
2022/01/24 03:28:21;;;;;;;11.17;10.07;;;4.30;99.90;;;;;;5014209;28;20688;-57
2022/01/24 03:30:47;;;;;;;10.77;9.03;;;4.20;99.90;;;;;;5013488;28;20562;-58
2022/01/24 03:33:12;;;;;;;10.90;9.80;;;4.10;99.90;;;;;;5014027;28;20180;-54
2022/01/24 03:35:43;;;;;;;9.90;8.90;;;4.10;99.90;;;;;;5013288;28;20226;-60
2022/01/24 03:38:10;;;;;;;10.10;8.97;;;4.10;99.90;;;;;;5013959;28;20571;-58
2022/01/24 03:40:35;;;;;;;11.20;10.07;;;4.20;99.90;;;;;;5013465;28;20196;-60
2022/01/24 03:43:01;;;;;;;10.30;9.27;;;4.20;99.90;;;;;;5013806;28;20674;-60
2022/01/24 03:45:45;;;;;;;11.13;9.93;;;4.20;99.90;;;;;;5013260;28;20212;-56
2022/01/24 03:48:24;;;;;;;9.83;8.83;;;4.30;99.90;;;;;;5013611;28;20200;-57
2022/01/24 03:50:50;;;;;;;10.37;9.20;;;4.30;99.90;;;;;;5013577;28;20264;-59
2022/01/24 03:53:16;;;;;;;10.87;9.67;;;4.40;99.90;;;;;;5012247;28;20178;-59
2022/01/24 03:55:41;;;;;;;10.47;9.37;;;4.20;99.90;;;;;;5013290;28;20267;-59
2022/01/24 03:58:07;;;;;;;10.80;9.70;;;4.10;99.90;;;;;;5013081;28;20180;-58
2022/01/24 04:00:33;;;;;;;11.47;10.27;;;4.20;99.90;;;;;;5013200;28;20731;-60
2022/01/24 04:02:59;;;;;;;11.90;10.07;;;4.20;99.90;;;;;;5013079;28;20179;-60
2022/01/24 04:05:25;;;;;;;11.97;10.70;;;4.20;99.90;;;;;;5013138;28;20629;-60
2022/01/24 04:07:50;;;;;;;11.80;10.60;;;4.20;99.90;;;;;;5012891;28;20250;-60
2022/01/24 04:10:19;;;;;;;10.97;9.77;;;4.20;99.90;;;;;;5013169;28;20188;-58
2022/01/24 04:12:45;;;;;;;10.97;9.60;;;4.20;99.90;;;;;;5013337;28;20172;-60
2022/01/24 04:17:42;;;;;;;11.03;9.90;;;4.20;99.90;;;;;;5013086;28;20191;-60
2022/01/24 04:22:55;;;;;;;10.97;9.87;;;4.40;99.90;;;;;;5013562;28;20195;-54
2022/01/24 04:25:23;;;;;;;11.33;10.10;;;4.40;99.90;;;;;;5012407;28;20231;-52
2022/01/24 04:27:51;;;;;;;11.57;10.33;;;4.40;99.90;;;;;;5012965;28;20238;-53
2022/01/24 04:30:17;;;;;;;12.60;11.20;;;4.30;99.90;;;;;;5045948;22;20215;-55
2022/01/24 04:32:43;;;;;;;10.67;9.47;;;4.30;99.90;;;;;;5030823;28;20211;-54
2022/01/24 04:35:09;;;;;;;10.93;9.73;;;4.40;99.90;;;;;;5031916;28;20172;-55
2022/01/24 04:37:35;;;;;;;11.43;10.23;;;4.40;99.90;;;;;;5032206;28;20174;-58
2022/01/24 04:40:00;;;;;;;11.97;10.40;;;4.40;99.90;;;;;;5032448;28;20194;-54
2022/01/24 04:42:38;;;;;;;11.77;10.40;;;4.50;99.90;;;;;;5012381;28;20168;-57
2022/01/24 04:56:04;;;;;;;11.47;9.70;;;4.50;99.90;;;;;;5012470;28;20183;-54
2022/01/24 04:58:30;;;;;;;12.40;10.23;;;4.50;99.90;;;;;;5012040;28;20172;-56
2022/01/24 05:00:56;;;;;;;11.57;10.00;;;4.50;99.90;;;;;;5012428;28;20617;-57
2022/01/24 05:03:21;;;;;;;11.80;10.50;;;4.50;99.90;;;;;;5012186;28;20184;-57
2022/01/24 05:05:48;;;;;;;11.73;10.13;;;4.50;99.90;;;;;;5011718;28;20242;-53
2022/01/24 05:08:15;;;;;;;11.80;10.53;;;4.50;99.90;;;;;;5012272;28;20200;-58
2022/01/24 05:10:54;;;;;;;11.63;10.27;;;4.50;99.90;;;;;;5011273;28;20235;-52
2022/01/24 05:23:26;;;;;;;13.33;11.00;;;4.60;99.90;;;;;;4983471;28;20211;-58
2022/01/24 05:24:39;;;;;;;12.70;10.73;;;4.60;99.90;;;;;;5011581;28;20190;-60
2022/01/24 05:27:05;;;;;;;11.20;9.60;;;4.60;99.90;;;;;;5011679;28;20180;-55
2022/01/24 05:29:31;;;;;;;13.27;11.43;;;4.70;99.90;;;;;;5011942;28;20207;-58
2022/01/24 05:31:57;;;;;;;12.83;11.07;;;4.60;99.90;;;;;;5011286;28;20204;-58
2022/01/24 05:34:23;;;;;;;12.83;10.70;;;4.70;99.90;;;;;;5011851;28;20195;-58
2022/01/24 05:36:49;;;;;;;12.30;10.70;;;4.70;99.90;;;;;;5011255;28;20590;-57
2022/01/24 05:39:15;;;;;;;11.60;10.40;;;4.70;99.90;;;;;;5011568;28;20227;-57
2022/01/24 05:41:40;;;;;;;12.53;10.63;;;4.70;99.90;;;;;;5011626;28;20220;-58
2022/01/24 05:44:06;;;;;;;14.20;11.17;;;4.60;99.90;;;;;;5011366;28;20255;-55
2022/01/24 05:46:32;;;;;;;12.87;10.83;;;4.60;99.90;;;;;;5011507;28;20187;-56
2022/01/24 05:48:58;;;;;;;13.97;11.13;;;4.60;99.90;;;;;;5011000;28;20672;-58
2022/01/24 05:51:24;;;;;;;14.90;11.13;;;4.70;99.90;;;;;;5010052;28;20215;-55
2022/01/24 05:53:49;;;;;;;15.23;11.03;;;4.70;99.90;;;;;;5009999;28;20184;-60
2022/01/24 05:56:15;;;;;;;13.30;10.87;;;4.70;99.90;;;;;;5010388;28;20510;-58
2022/01/24 05:58:41;;;;;;;13.37;11.00;;;4.70;99.90;;;;;;5011559;28;20180;-60
2022/01/24 06:01:06;;;;;;;15.67;11.73;;;4.70;99.90;;;;;;5011057;28;20204;-58
2022/01/24 06:03:32;;;;;;;14.37;11.70;;;4.70;99.90;;;;;;5011564;28;20181;-57
2022/01/24 06:05:58;;;;;;;14.77;11.20;;;4.70;99.90;;;;;;5010873;28;20555;-56
2022/01/24 06:08:23;;;;;;;14.67;11.80;;;4.70;99.90;;;;;;5011498;28;20216;-57
2022/01/24 06:10:49;;;;;;;13.60;11.60;;;4.70;99.90;;;;;;5011057;28;20226;-56
2022/01/24 06:13:15;;;;;;;15.53;11.40;;;4.70;99.90;;;;;;5011539;28;20180;-58
2022/01/24 06:15:42;;;;;;;13.33;11.63;;;4.70;99.90;;;;;;5011238;28;20165;-58
2022/01/24 06:18:08;;;;;;;15.60;12.33;;;4.60;99.90;;;;;;5011097;28;20176;-58
2022/01/24 06:20:34;;;;;;;15.03;12.10;;;4.60;99.90;;;;;;5011375;28;20727;-58
2022/01/24 06:23:00;;;;;;;15.23;12.43;;;4.60;99.90;;;;;;5013495;28;20263;-58
2022/01/24 06:25:28;;;;;;;15.10;12.13;;;4.60;99.90;;;;;;5014971;28;20178;-58
2022/01/24 06:27:53;;;;;;;16.57;12.23;;;4.70;99.90;;;;;;5014302;28;20177;-54
2022/01/24 06:30:19;;;;;;;16.50;12.90;;;4.70;99.90;;;;;;5014957;28;20212;-57
2022/01/24 06:32:45;;;;;;;17.90;13.17;;;4.70;99.90;;;;;;5014666;28;20530;-52
2022/01/24 06:35:12;;;;;;;16.80;12.63;;;4.70;99.90;;;;;;5014262;28;20182;-53
2022/01/24 06:37:38;;;;;;;16.90;13.20;;;4.70;99.90;;;;;;5014823;28;20723;-58
2022/01/24 06:40:06;;;;;;;18.67;14.03;;;4.70;99.90;;;;;;5014243;28;20187;-56
2022/01/24 06:42:31;;;;;;;20.13;14.40;;;4.70;99.90;;;;;;5014609;28;20591;-54
2022/01/24 06:44:57;;;;;;;21.50;15.30;;;4.70;99.90;;;;;;5008983;28;20177;-54
2022/01/24 06:47:23;;;;;;;19.23;15.43;;;4.70;99.90;;;;;;5002447;28;20173;-54
2022/01/24 06:49:49;;;;;;;19.43;14.93;;;4.70;99.90;;;;;;5006385;28;20197;-56
2022/01/24 06:52:15;;;;;;;20.47;15.27;;;4.70;99.90;;;;;;4994685;28;20551;-57
2022/01/24 06:54:42;;;;;;;22.20;16.93;;;4.70;99.90;;;;;;5002374;28;20172;-54
2022/01/24 06:57:10;;;;;;;25.30;17.57;;;4.70;99.90;;;;;;5014015;28;20168;-53
2022/01/24 06:59:36;;;;;;;24.57;17.83;;;4.80;99.90;;;;;;5014631;28;20626;-55
2022/01/24 07:02:02;;;;;;;23.80;17.13;;;4.80;99.90;;;;;;5003466;28;20229;-58
2022/01/24 07:04:28;;;;;;;21.13;16.33;;;4.80;99.90;;;;;;4993828;28;20181;-52
2022/01/24 07:06:54;;;;;;;22.07;16.40;;;4.80;99.90;;;;;;5002401;28;20189;-57
2022/01/24 07:09:19;;;;;;;20.63;16.07;;;4.80;99.90;;;;;;4994416;28;20232;-55
2022/01/24 07:11:45;;;;;;;21.43;16.93;;;4.80;99.90;;;;;;5001555;28;20197;-57
2022/01/24 07:14:13;;;;;;;18.67;14.83;;;4.80;99.90;;;;;;5006197;28;20184;-56
2022/01/24 07:19:16;;;;;;;15.50;12.67;;;4.90;99.90;;;;;;4994200;28;20275;-58
2022/01/24 07:21:42;;;;;;;16.60;13.43;;;4.90;99.90;;;;;;4994458;28;20201;-53
2022/01/24 07:24:07;;;;;;;16.33;12.60;;;4.90;99.90;;;;;;4994022;28;20181;-55
2022/01/24 07:26:33;;;;;;;18.07;13.77;;;4.90;99.90;;;;;;5006237;28;20212;-52
2022/01/24 07:28:58;;;;;;;15.50;12.87;;;4.90;99.90;;;;;;5013211;28;20201;-52
2022/01/24 07:31:24;;;;;;;16.13;13.63;;;4.80;99.90;;;;;;4993076;28;20248;-57
2022/01/24 07:33:51;;;;;;;16.17;13.13;;;4.80;99.90;;;;;;5012825;28;20208;-56
2022/01/24 07:36:17;;;;;;;16.03;12.77;;;4.80;99.90;;;;;;5005352;28;20181;-54
2022/01/24 07:38:42;;;;;;;16.53;13.63;;;4.90;99.90;;;;;;5007329;28;20717;-58
2022/01/24 07:41:08;;;;;;;16.63;13.53;;;4.90;99.90;;;;;;5004157;28;20299;-55
2022/01/24 07:43:34;;;;;;;18.33;14.20;;;4.90;99.90;;;;;;5006944;28;20192;-59
2022/01/24 07:45:59;;;;;;;16.63;13.80;;;4.90;99.90;;;;;;4993476;28;20201;-59
2022/01/24 07:48:25;;;;;;;17.00;14.00;;;5.00;99.90;;;;;;4993532;28;20201;-55
2022/01/24 07:50:52;;;;;;;17.10;13.03;;;5.00;99.90;;;;;;4993893;28;20686;-56
2022/01/24 07:53:19;;;;;;;17.43;13.40;;;5.00;99.90;;;;;;4993654;28;20252;-58
2022/01/24 07:55:45;;;;;;;16.60;14.17;;;5.00;99.90;;;;;;4993546;28;20259;-56
2022/01/24 07:58:11;;;;;;;16.27;13.30;;;5.10;99.90;;;;;;4993485;28;20677;-53
2022/01/24 08:00:37;;;;;;;16.03;13.47;;;5.20;99.90;;;;;;4993671;28;20197;-58
2022/01/24 08:03:03;;;;;;;13.97;12.47;;;6.20;99.90;;;;;;4993190;28;20217;-57
2022/01/24 08:05:29;;;;;;;13.07;11.13;;;5.10;99.90;;;;;;4993632;28;20173;-57
2022/01/24 08:07:54;;;;;;;13.67;11.57;;;5.20;99.90;;;;;;4993412;28;20256;-53
2022/01/24 08:10:20;;;;;;;13.97;12.20;;;5.20;99.90;;;;;;4992987;28;20303;-59
2022/01/24 08:12:46;;;;;;;13.07;11.63;;;5.30;99.90;;;;;;4993800;28;20228;-58
2022/01/24 08:15:16;;;;;;;14.97;12.90;;;5.40;99.90;;;;;;4993426;28;20582;-58
2022/01/24 08:17:43;;;;;;;14.30;12.40;;;5.40;99.90;;;;;;4994406;28;20253;-58
2022/01/24 08:20:11;;;;;;;13.00;11.60;;;5.50;99.90;;;;;;4976145;28;20169;-59
2022/01/24 08:22:37;;;;;;;13.40;11.40;;;5.60;99.90;;;;;;4976440;28;20177;-58
2022/01/24 08:25:04;;;;;;;13.57;11.63;;;5.60;99.90;;;;;;4993028;28;20179;-54
2022/01/24 08:27:34;;;;;;;12.97;11.57;;;5.70;99.90;;;;;;4993530;28;20284;-59
2022/01/24 08:30:01;;;;;;;14.07;12.23;;;5.80;99.90;;;;;;4993328;28;20279;-57
2022/01/24 08:32:26;;;;;;;12.47;10.73;;;5.90;99.90;;;;;;4993448;28;20208;-58
2022/01/24 08:34:54;;;;;;;12.93;11.20;;;6.00;99.90;;;;;;4993395;28;20173;-58
2022/01/24 08:37:19;;;;;;;12.30;11.00;;;6.10;99.90;;;;;;4993069;28;20172;-59
2022/01/24 08:39:45;;;;;;;12.23;10.93;;;6.20;99.90;;;;;;4993381;28;20176;-59
2022/01/24 08:47:23;;;;;;;11.57;10.37;;;6.40;99.90;;;;;;5024789;28;20730;-59
2022/01/24 08:49:49;;;;;;;11.77;10.57;;;6.40;99.90;;;;;;5020146;28;20222;-58
2022/01/24 08:52:15;;;;;;;10.97;9.87;;;6.50;99.90;;;;;;4988684;28;20696;-56
2022/01/24 08:54:41;;;;;;;10.93;9.83;;;6.60;99.90;;;;;;5026387;28;20176;-59
2022/01/24 08:57:07;;;;;;;11.77;10.50;;;6.60;99.90;;;;;;5015137;28;20172;-58
2022/01/24 08:59:33;;;;;;;11.10;10.00;;;6.70;99.90;;;;;;5027091;28;20168;-58
2022/01/24 09:02:00;;;;;;;10.93;9.83;;;6.70;99.90;;;;;;5014942;28;20199;-58
2022/01/24 09:04:28;;;;;;;10.30;9.20;;;6.70;99.90;;;;;;5001289;28;20177;-51
2022/01/24 09:06:54;;;;;;;11.30;10.07;;;6.80;99.90;;;;;;4983007;28;20217;-58
2022/01/24 09:09:20;;;;;;;10.73;9.63;;;6.80;99.90;;;;;;5006982;28;20227;-52
2022/01/24 09:11:46;;;;;;;11.23;10.13;;;6.90;99.90;;;;;;5006422;28;20200;-55
2022/01/24 09:14:12;;;;;;;10.27;9.17;;;7.00;99.90;;;;;;5007483;28;20688;-55
2022/01/24 09:16:38;;;;;;;10.60;9.50;;;7.10;99.90;;;;;;5003654;28;20200;-55
2022/01/24 09:19:05;;;;;;;9.87;8.87;;;7.20;99.90;;;;;;5005085;28;20180;-57
2022/01/24 09:21:32;;;;;;;11.33;10.23;;;7.30;99.90;;;;;;5026057;28;20685;-57
2022/01/24 09:23:57;;;;;;;12.13;9.77;;;7.30;99.90;;;;;;5008533;28;20177;-57
2022/01/24 09:26:23;;;;;;;10.23;9.20;;;7.30;99.90;;;;;;5024393;28;20180;-54
2022/01/24 09:28:48;;;;;;;11.57;10.30;;;7.20;99.90;;;;;;5021243;28;20283;-57
2022/01/24 09:31:15;;;;;;;10.70;9.17;;;7.20;99.90;;;;;;5017926;28;20223;-55
2022/01/24 09:33:40;;;;;;;11.27;9.77;;;7.20;99.90;;;;;;5028016;28;20176;-55
2022/01/24 09:36:06;;;;;;;11.30;10.10;;;7.00;99.90;;;;;;5015007;28;20176;-53
2022/01/24 09:38:33;;;;;;;11.40;10.20;;;6.80;99.90;;;;;;5025460;28;20176;-54
2022/01/24 09:41:01;;;;;;;11.30;9.77;;;6.70;99.90;;;;;;5026938;28;20211;-56
2022/01/24 09:43:27;;;;;;;11.90;10.60;;;6.70;99.90;;;;;;4999823;28;20187;-55
2022/01/24 09:45:52;;;;;;;12.23;10.93;;;6.70;99.90;;;;;;4967865;28;20250;-54
2022/01/24 09:48:19;;;;;;;12.37;11.07;;;6.80;99.90;;;;;;4999911;28;20200;-54
2022/01/24 09:50:46;;;;;;;13.03;11.57;;;6.80;99.90;;;;;;4998608;28;20197;-55
2022/01/24 09:53:16;;;;;;;12.90;11.60;;;6.80;99.90;;;;;;5001420;28;20168;-56
2022/01/24 09:55:42;;;;;;;12.43;11.10;;;7.40;99.90;;;;;;5000445;28;20248;-55
2022/01/24 09:58:08;;;;;;;13.93;12.33;;;6.80;99.90;;;;;;5002467;28;20638;-54
2022/01/24 10:00:33;;;;;;;13.47;11.77;;;6.90;99.90;;;;;;5005249;28;20235;-55
2022/01/24 10:02:59;;;;;;;11.73;10.53;;;7.00;99.90;;;;;;5004271;28;20181;-58
2022/01/24 10:05:34;;;;;;;13.67;10.87;;;7.00;99.90;;;;;;5003007;28;20463;-52
2022/01/24 10:08:06;;;;;;;12.00;10.50;;;6.90;99.90;;;;;;5004312;28;20160;-57
2022/01/24 10:10:49;;;;;;;12.33;10.97;;;6.80;99.90;;;;;;5004892;28;20196;-53
2022/01/24 10:19:20;;;;;;;11.50;10.30;;;7.00;99.90;;;;;;5005215;28;20196;-55
2022/01/24 10:21:46;;;;;;;11.47;9.43;;;7.00;99.90;;;;;;5000912;28;20243;-57
2022/01/24 10:24:28;;;;;;;10.73;9.63;;;6.90;99.90;;;;;;5002552;28;20169;-56
2022/01/24 10:27:20;;;;;;;11.23;9.57;;;6.90;99.90;;;;;;5002793;28;20184;-57
2022/01/24 10:29:50;;;;;;;10.93;9.60;;;7.20;99.90;;;;;;5004202;28;20609;-51
2022/01/24 10:32:33;;;;;;;9.40;8.40;;;7.50;99.90;;;;;;4992542;28;20212;-53
2022/01/24 10:35:36;;;;;;;9.57;7.70;;;8.20;99.90;;;;;;5003756;28;20170;-56
2022/01/24 10:43:33;;;;;;;8.07;7.13;;;14.20;99.90;;;;;;5015100;28;20584;-61
2022/01/24 10:46:00;;;;;;;7.63;6.90;;;15.90;99.90;;;;;;5015302;28;20200;-60
2022/01/24 10:48:28;;;;;;;6.80;6.20;;;16.90;99.90;;;;;;5015086;28;20199;-60
2022/01/24 10:51:05;;;;;;;6.53;5.87;;;18.10;99.90;;;;;;5033291;28;20192;-61
2022/01/24 10:53:39;;;;;;;5.33;4.80;;;19.20;99.50;;;;;;5034974;28;20197;-58
2022/01/24 10:56:30;;;;;;;5.63;4.70;;;19.80;96.80;;;;;;5034067;28;20524;-60
2022/01/24 10:59:04;;;;;;;4.53;3.83;;;19.90;92.40;;;;;;5034634;28;20175;-61
2022/01/24 11:01:30;;;;;;;4.63;3.60;;;19.40;92.00;;;;;;5034260;28;20845;-62
2022/01/24 11:04:04;;;;;;;4.50;3.57;;;19.30;92.70;;;;;;5017203;28;20172;-60
2022/01/24 11:06:33;;;;;;;3.95;3.53;;;20.60;93.10;;;;;;5035196;28;20172;-62
2022/01/24 11:09:45;;;;;;;3.95;3.30;;;23.00;91.40;;;;;;5035812;28;20266;-61
2022/01/24 11:12:13;;;;;;;2.95;2.40;;;26.00;86.60;;;;;;5013223;28;20183;-62
2022/01/24 11:14:41;;;;;;;3.88;2.00;;;29.00;73.20;;;;;;5034690;28;20172;-62
2022/01/24 11:17:08;;;;;;;3.88;1.58;;;31.00;63.10;;;;;;5033990;28;20192;-59
2022/01/24 11:19:44;;;;;;;3.60;1.98;;;32.80;55.90;;;;;;5034721;28;20203;-59
2022/01/24 11:22:24;;;;;;;3.72;2.00;;;33.90;51.00;;;;;;5032791;28;20775;-56
2022/01/24 11:25:01;;;;;;;2.80;1.90;;;34.90;46.80;;;;;;5033945;28;20177;-61
2022/01/24 11:27:28;;;;;;;2.28;1.92;;;35.20;45.40;;;;;;5033819;28;20199;-58
2022/01/24 11:29:56;;;;;;;3.30;2.20;;;35.80;41.90;;;;;;5034316;28;20203;-58
2022/01/24 11:32:30;;;;;;;2.53;2.33;;;34.90;41.60;;;;;;5034075;28;20191;-59
2022/01/24 11:34:57;;;;;;;2.85;2.65;;;33.10;41.70;;;;;;5034635;28;20206;-58
2022/01/24 11:37:45;;;;;;;2.10;1.90;;;31.20;43.20;;;;;;5034944;28;20208;-61
2022/01/24 11:40:19;;;;;;;3.00;1.90;;;29.60;44.90;;;;;;5034505;28;20719;-59
2022/01/24 11:42:47;;;;;;;2.28;1.80;;;27.80;45.10;;;;;;5034191;28;20167;-59
2022/01/24 11:45:17;;;;;;;3.03;2.33;;;26.20;46.60;;;;;;5032506;28;20168;-56
2022/01/24 11:47:45;;;;;;;5.90;3.95;;;24.60;48.30;;;;;;5033273;28;20172;-60
2022/01/24 11:50:26;;;;;;;3.17;2.40;;;22.80;50.80;;;;;;5032479;28;20227;-61
2022/01/24 11:52:54;;;;;;;4.90;3.08;;;21.10;53.00;;;;;;5034782;28;20172;-61
2022/01/24 11:55:34;;;;;;;3.60;2.70;;;19.60;53.90;;;;;;5034603;28;20276;-60
2022/01/24 11:58:03;;;;;;;2.80;2.60;;;18.00;56.90;;;;;;5035041;28;20168;-59
2022/01/24 12:00:34;;;;;;;4.20;3.30;;;17.00;59.50;;;;;;5034223;28;20688;-59
2022/01/24 12:03:17;;;;;;;3.43;3.13;;;16.40;62.10;;;;;;5035057;28;20168;-59
2022/01/24 12:05:50;;;;;;;5.87;3.60;;;15.60;64.40;;;;;;5034374;28;20195;-61
2022/01/24 12:08:41;;;;;;;3.37;3.07;;;15.00;67.50;;;;;;5034938;28;20562;-59
2022/01/24 12:11:23;;;;;;;4.60;3.23;;;14.40;69.20;;;;;;5017326;28;20447;-60
2022/01/24 12:13:53;;;;;;;3.93;3.10;;;13.80;69.20;;;;;;5014100;28;20216;-60
2022/01/24 12:16:20;;;;;;;4.10;2.73;;;13.30;72.10;;;;;;5013293;28;20546;-61
2022/01/24 12:18:51;;;;;;;7.10;3.27;;;12.70;73.90;;;;;;5012906;28;20705;-60
2022/01/24 12:21:24;;;;;;;4.40;3.17;;;12.20;78.80;;;;;;5013259;28;20196;-61
2022/01/24 12:23:53;;;;;;;3.10;2.80;;;12.10;83.30;;;;;;5010110;28;20165;-58
2022/01/24 12:26:19;;;;;;;5.00;2.90;;;11.80;86.40;;;;;;5012796;28;20259;-59
2022/01/24 12:28:45;;;;;;;3.10;2.73;;;11.70;87.60;;;;;;5012544;28;20287;-59
2022/01/24 12:31:32;;;;;;;3.40;2.50;;;11.60;89.80;;;;;;5013179;28;20181;-61
2022/01/24 12:34:11;;;;;;;3.23;2.70;;;11.50;90.50;;;;;;5010967;28;20227;-58
2022/01/24 12:36:37;;;;;;;2.73;2.53;;;11.20;90.30;;;;;;5012260;28;20181;-58
2022/01/24 12:39:10;;;;;;;5.10;3.07;;;10.90;91.30;;;;;;5012829;28;20288;-59
2022/01/24 12:41:41;;;;;;;3.80;2.90;;;10.70;92.00;;;;;;5012317;28;20271;-56
2022/01/24 12:46:34;;;;;;;4.00;2.60;;;10.20;93.50;;;;;;5012181;28;20919;-59
2022/01/24 12:49:03;;;;;;;3.27;2.60;;;10.10;94.70;;;;;;5012133;28;20200;-57
2022/01/24 12:51:31;;;;;;;5.10;2.70;;;10.00;95.50;;;;;;5010629;28;20244;-55
2022/01/24 12:53:57;;;;;;;5.50;2.70;;;10.00;94.90;;;;;;5013495;28;20187;-56
2022/01/24 12:56:27;;;;;;;3.63;2.60;;;9.90;96.40;;;;;;5012556;28;20173;-58
2022/01/24 12:58:53;;;;;;;4.10;3.10;;;9.70;97.00;;;;;;5013418;28;20569;-58
2022/01/24 13:01:29;;;;;;;5.90;3.17;;;9.60;97.40;;;;;;5012858;28;20176;-59
2022/01/24 13:04:10;;;;;;;3.00;2.70;;;9.30;97.60;;;;;;5013008;28;20246;-58
2022/01/24 13:06:39;;;;;;;3.23;2.70;;;8.70;98.30;;;;;;5011566;28;20168;-58
2022/01/24 13:09:13;;;;;;;3.80;2.70;;;8.40;99.90;;;;;;5012836;28;20204;-59
2022/01/24 13:12:00;;;;;;;5.57;3.07;;;8.40;99.90;;;;;;5012909;28;20160;-57
2022/01/24 13:14:50;;;;;;;4.17;2.93;;;8.50;99.90;;;;;;5012836;28;20226;-57
2022/01/24 13:23:00;;;;;;;4.80;3.47;;;8.70;99.90;;;;;;5013131;28;20549;-58
2022/01/24 13:25:31;;;;;;;2.50;2.20;;;8.80;99.90;;;;;;5012731;28;20200;-58
2022/01/24 13:28:13;;;;;;;5.67;3.60;;;8.80;99.90;;;;;;5012614;28;20275;-58
2022/01/24 13:30:42;;;;;;;3.87;2.90;;;8.90;99.90;;;;;;5011865;28;20677;-59
2022/01/24 13:33:11;;;;;;;4.63;3.40;;;8.90;99.90;;;;;;5012150;28;20251;-62
2022/01/24 13:35:50;;;;;;;3.37;2.53;;;8.90;99.90;;;;;;5012295;28;20173;-55
2022/01/24 13:38:28;;;;;;;3.00;2.60;;;8.90;99.90;;;;;;5012728;28;20653;-59
2022/01/24 13:41:05;;;;;;;5.17;2.67;;;8.90;99.90;;;;;;5012972;28;20212;-58
2022/01/24 13:43:41;;;;;;;6.03;2.80;;;8.70;99.90;;;;;;5012944;28;20735;-60
2022/01/24 13:46:15;;;;;;;4.00;3.20;;;8.50;99.90;;;;;;5012247;28;20376;-57
2022/01/24 13:49:06;;;;;;;3.23;2.93;;;8.40;99.90;;;;;;5012579;28;20275;-58
2022/01/24 13:51:46;;;;;;;3.40;2.50;;;8.20;99.90;;;;;;5012575;28;20188;-60
2022/01/24 13:54:29;;;;;;;9.37;5.23;;;8.20;99.90;;;;;;5013428;28;20534;-59
2022/01/24 13:57:00;;;;;;;3.27;2.97;;;8.10;99.90;;;;;;5012135;28;20534;-58
2022/01/24 13:59:25;;;;;;;9.50;7.77;;;8.10;99.90;;;;;;4994949;28;20676;-60
2022/01/24 14:02:00;;;;;;;19.67;16.50;;;8.20;99.90;;;;;;5011881;28;20176;-59
2022/01/24 14:04:57;;;;;;;23.77;16.13;;;8.30;99.90;;;;;;5012729;28;20176;-55
2022/01/24 14:07:28;;;;;;;5.57;4.40;;;8.50;99.90;;;;;;4970366;28;20309;-59
2022/01/24 14:09:54;;;;;;;3.20;2.90;;;8.50;99.90;;;;;;4972067;28;20913;-59
2022/01/24 14:12:23;;;;;;;4.57;2.80;;;8.50;99.90;;;;;;4971241;28;20186;-53
2022/01/24 14:15:08;;;;;;;3.07;2.80;;;8.50;99.90;;;;;;4971274;28;20177;-59
2022/01/24 14:17:53;;;;;;;4.50;2.80;;;8.40;99.90;;;;;;4970780;28;20559;-58
2022/01/24 14:20:20;;;;;;;5.27;3.07;;;8.30;99.90;;;;;;4971956;28;20922;-59
2022/01/24 14:22:49;;;;;;;3.73;2.70;;;8.30;99.90;;;;;;4971548;28;20178;-57
2022/01/24 14:25:21;;;;;;;4.13;3.10;;;8.30;99.90;;;;;;4971595;28;20182;-57
2022/01/24 14:27:51;;;;;;;3.53;2.70;;;8.20;99.90;;;;;;4971354;28;20205;-59
2022/01/24 14:30:27;;;;;;;3.53;2.40;;;8.30;99.90;;;;;;4971048;28;20213;-56
2022/01/24 14:33:11;;;;;;;2.60;2.40;;;8.40;99.90;;;;;;4971876;28;20169;-56
2022/01/24 14:35:52;;;;;;;4.70;2.63;;;8.60;99.90;;;;;;4971057;28;20217;-58
2022/01/24 14:38:39;;;;;;;4.63;3.10;;;8.80;99.90;;;;;;4972336;28;20189;-57
2022/01/24 14:41:11;;;;;;;3.40;2.70;;;9.00;99.90;;;;;;4969912;28;20232;-58
2022/01/24 14:46:27;;;;;;;5.27;3.30;;;9.00;99.90;;;;;;5015855;28;20733;-59
2022/01/24 14:48:56;;;;;;;3.37;3.07;;;8.90;99.90;;;;;;5016085;28;20674;-57
2022/01/24 14:51:29;;;;;;;4.13;2.50;;;8.80;99.90;;;;;;4998206;28;20254;-58
2022/01/24 14:53:57;;;;;;;3.13;2.57;;;8.70;99.90;;;;;;5016056;28;20196;-58
2022/01/24 14:56:23;;;;;;;3.80;2.90;;;8.50;99.90;;;;;;5015258;28;20184;-53
2022/01/24 14:58:49;;;;;;;3.47;3.17;;;8.50;99.90;;;;;;5015480;28;20188;-57
2022/01/24 15:01:15;;;;;;;3.13;2.73;;;8.50;99.90;;;;;;5015663;28;20176;-55